createdAt,value
2022-10-17T00:00:14.246Z,92.91
2022-10-17T00:02:44.351Z,92.96
2022-10-17T00:05:13.640Z,91.82
2022-10-17T00:07:44.466Z,91.83
2022-10-17T00:10:13.867Z,92.80
2022-10-17T00:12:43.014Z,89.27
2022-10-17T00:15:16.190Z,90.97
2022-10-17T00:17:46.039Z,90.67
2022-10-17T00:20:15.821Z,89.12
2022-10-17T00:22:46.631Z,88.77
2022-10-17T00:25:15.992Z,90.58
2022-10-17T00:27:45.580Z,90.63
2022-10-17T00:30:16.576Z,89.45
2022-10-17T00:32:46.066Z,88.18
2022-10-17T00:35:15.388Z,88.88
2022-10-17T00:37:46.320Z,88.56
2022-10-17T00:40:15.758Z,90.58
2022-10-17T00:42:45.429Z,92.47
2022-10-17T00:45:20.027Z,93.48
2022-10-17T00:47:52.497Z,92.33
2022-10-17T00:50:22.132Z,91.43
2022-10-17T00:52:52.702Z,89.19
2022-10-17T00:55:24.812Z,91.13
2022-10-17T00:57:55.599Z,90.46
2022-10-17T01:00:26.107Z,89.43
2022-10-17T01:02:59.066Z,89.92
2022-10-17T01:05:28.649Z,90.37
2022-10-17T01:08:00.837Z,89.66
2022-10-17T01:10:34.628Z,89.26
2022-10-17T01:13:12.780Z,88.72
2022-10-17T01:15:50.412Z,87.75
2022-10-17T01:18:29.037Z,88.21
2022-10-17T01:21:19.893Z,91.57
2022-10-17T01:24:33.843Z,89.70
2022-10-17T01:27:31.455Z,90.40
2022-10-17T01:30:32.412Z,93.22
2022-10-17T01:33:07.951Z,91.42
2022-10-17T01:35:41.409Z,91.16
2022-10-17T01:38:13.850Z,90.25
2022-10-17T01:40:45.576Z,89.84
2022-10-17T01:43:18.647Z,90.24
2022-10-17T01:45:51.804Z,90.07
2022-10-17T01:48:25.176Z,88.47
2022-10-17T01:50:57.126Z,88.26
2022-10-17T01:53:30.665Z,88.52
2022-10-17T01:56:02.224Z,87.14
2022-10-17T01:58:34.719Z,87.91
2022-10-17T02:01:07.658Z,91.35
2022-10-17T02:03:38.832Z,90.81
2022-10-17T02:06:08.839Z,89.41
2022-10-17T02:08:43.828Z,92.23
2022-10-17T02:11:16.976Z,91.20
2022-10-17T02:16:48.202Z,93.63
2022-10-17T02:19:47.496Z,93.19
2022-10-17T02:22:25.012Z,92.42
2022-10-17T02:24:59.595Z,92.81
2022-10-17T02:27:36.726Z,90.31
2022-10-17T02:30:10.271Z,94.32
2022-10-17T02:32:46.698Z,91.37
2022-10-17T02:35:21.955Z,90.32
2022-10-17T02:37:53.428Z,91.10
2022-10-17T02:40:24.334Z,91.97
2022-10-17T02:42:55.151Z,94.16
2022-10-17T02:45:26.056Z,94.12
2022-10-17T02:48:00.793Z,93.03
2022-10-17T02:50:39.491Z,95.67
2022-10-17T02:53:13.195Z,95.41
2022-10-17T02:55:47.734Z,92.42
2022-10-17T02:58:20.315Z,96.46
2022-10-17T03:00:49.873Z,97.03
2022-10-17T03:03:24.804Z,97.10
2022-10-17T03:05:56.623Z,94.96
2022-10-17T03:08:26.027Z,96.75
2022-10-17T03:10:55.412Z,93.96
2022-10-17T03:13:25.112Z,91.97
2022-10-17T03:15:54.399Z,92.23
2022-10-17T03:18:23.673Z,91.80
2022-10-17T03:20:54.659Z,89.56
2022-10-17T03:23:24.291Z,89.28
2022-10-17T03:25:53.618Z,89.02
2022-10-17T03:28:22.889Z,89.21
2022-10-17T03:30:52.517Z,89.78
2022-10-17T03:33:21.792Z,89.14
2022-10-17T03:35:52.361Z,87.46
2022-10-17T03:38:23.070Z,88.18
2022-10-17T03:40:57.252Z,91.27
2022-10-17T03:43:26.694Z,89.47
2022-10-17T03:45:56.261Z,87.56
2022-10-17T03:48:26.991Z,89.68
2022-10-17T03:51:01.459Z,88.03
2022-10-17T03:53:32.448Z,91.49
2022-10-17T03:56:11.749Z,92.26
2022-10-17T03:58:42.084Z,90.05
2022-10-17T04:01:13.308Z,89.90
2022-10-17T04:03:43.258Z,90.96
2022-10-17T04:06:13.947Z,93.29
2022-10-17T04:08:44.650Z,88.82
2022-10-17T04:11:17.375Z,89.03
2022-10-17T04:13:47.397Z,88.27
2022-10-17T04:16:18.387Z,88.49
2022-10-17T04:18:47.972Z,89.81
2022-10-17T04:21:18.379Z,88.21
2022-10-17T04:23:49.071Z,91.20
2022-10-17T04:26:18.495Z,89.18
2022-10-17T04:28:47.861Z,88.89
2022-10-17T04:31:17.127Z,90.72
2022-10-17T04:33:48.930Z,89.03
2022-10-17T04:36:19.698Z,89.74
2022-10-17T04:38:50.684Z,86.96
2022-10-17T04:41:20.982Z,87.05
2022-10-17T04:43:51.444Z,87.82
2022-10-17T04:46:21.143Z,88.26
2022-10-17T04:48:50.593Z,87.63
2022-10-17T04:51:23.068Z,91.11
2022-10-17T04:53:57.121Z,90.00
2022-10-17T04:56:27.451Z,87.64
2022-10-17T04:58:56.741Z,91.04
2022-10-17T05:01:26.263Z,87.97
2022-10-17T05:03:56.083Z,87.06
2022-10-17T05:06:28.258Z,87.98
2022-10-17T05:09:03.169Z,90.49
2022-10-17T05:11:34.480Z,88.55
2022-10-17T05:14:04.972Z,89.17
2022-10-17T05:16:34.381Z,90.62
2022-10-17T05:19:04.369Z,88.37
2022-10-17T05:21:34.254Z,86.36
2022-10-17T05:24:07.945Z,89.76
2022-10-17T05:26:38.759Z,89.82
2022-10-17T05:29:08.286Z,88.56
2022-10-17T05:31:37.762Z,85.93
2022-10-17T05:34:09.132Z,84.55
2022-10-17T05:36:41.166Z,87.52
2022-10-17T05:39:13.550Z,88.78
2022-10-17T05:41:43.310Z,88.78
2022-10-17T05:44:12.236Z,90.34
2022-10-17T05:46:41.262Z,87.46
2022-10-17T05:49:25.190Z,90.00
2022-10-17T05:52:01.087Z,87.73
2022-10-17T05:54:35.100Z,88.44
2022-10-17T05:57:04.364Z,89.83
2022-10-17T05:59:34.057Z,88.54
2022-10-17T06:02:03.594Z,90.03
2022-10-17T06:04:32.919Z,90.62
2022-10-17T06:07:02.308Z,89.58
2022-10-17T06:09:33.061Z,88.32
2022-10-17T06:12:02.404Z,88.14
2022-10-17T06:14:33.361Z,91.20
2022-10-17T06:17:02.662Z,88.18
2022-10-17T06:19:34.688Z,87.45
2022-10-17T06:22:03.997Z,91.00
2022-10-17T06:24:34.818Z,91.07
2022-10-17T06:27:08.027Z,89.28
2022-10-17T06:29:41.274Z,90.29
2022-10-17T06:32:12.774Z,90.92
2022-10-17T06:34:45.550Z,90.07
2022-10-17T06:37:15.216Z,89.41
2022-10-17T06:39:45.943Z,90.52
2022-10-17T06:42:17.201Z,91.22
2022-10-17T06:44:49.561Z,93.91
2022-10-17T06:47:20.034Z,91.38
2022-10-17T06:49:49.581Z,96.81
2022-10-17T06:52:18.872Z,97.33
2022-10-17T06:54:49.751Z,94.98
2022-10-17T06:57:19.117Z,92.80
2022-10-17T06:59:48.462Z,91.80
2022-10-17T07:02:17.967Z,97.85
2022-10-17T07:04:50.760Z,97.22
2022-10-17T07:07:20.385Z,97.47
2022-10-17T07:09:52.665Z,95.89
2022-10-17T07:12:22.515Z,95.20
2022-10-17T07:14:52.147Z,97.27
2022-10-17T07:17:21.591Z,98.34
2022-10-17T07:19:50.559Z,95.98
2022-10-17T07:22:19.618Z,99.86
2022-10-17T07:27:27.614Z,100.00
2022-10-17T07:29:59.120Z,97.65
2022-10-17T07:32:29.084Z,96.74
2022-10-17T07:34:58.347Z,99.84
2022-10-17T07:37:27.978Z,99.16
2022-10-17T07:39:59.473Z,95.28
2022-10-17T07:42:29.082Z,95.05
2022-10-17T07:44:58.515Z,99.40
2022-10-17T07:47:28.007Z,100.00
2022-10-17T07:49:57.381Z,100.00
2022-10-17T07:52:27.937Z,100.00
2022-10-17T07:54:58.825Z,100.00
2022-10-17T07:57:28.288Z,100.00
2022-10-17T07:59:57.871Z,100.00
2022-10-17T08:02:28.820Z,100.00
2022-10-17T08:04:58.660Z,100.00
2022-10-17T08:07:29.434Z,100.00
2022-10-17T08:10:02.669Z,100.00
2022-10-17T08:12:34.423Z,100.00
2022-10-17T08:15:04.148Z,99.84
2022-10-17T08:17:33.470Z,100.00
2022-10-17T08:20:02.430Z,100.00
2022-10-17T08:22:33.023Z,100.00
2022-10-17T08:25:03.742Z,100.00
2022-10-17T08:27:34.694Z,100.00
2022-10-17T08:30:04.484Z,100.00
2022-10-17T08:32:34.060Z,100.00
2022-10-17T08:35:04.402Z,100.00
2022-10-17T08:37:34.038Z,100.00
2022-10-17T08:40:06.054Z,98.55
2022-10-17T08:43:02.879Z,99.89
2022-10-17T08:45:35.271Z,100.00
2022-10-17T08:48:07.479Z,98.10
2022-10-17T08:50:39.883Z,99.89
2022-10-17T08:53:16.184Z,100.00
2022-10-17T08:55:49.174Z,100.00
2022-10-17T08:58:24.404Z,98.29
2022-10-17T09:01:02.449Z,95.63
2022-10-17T09:03:46.930Z,97.90
2022-10-17T09:06:24.539Z,99.11
2022-10-17T09:09:04.850Z,97.93
2022-10-17T09:11:45.384Z,99.61
2022-10-17T09:14:33.379Z,99.80
2022-10-17T09:17:13.738Z,96.52
2022-10-17T09:19:46.547Z,94.94
2022-10-17T09:22:20.252Z,97.45
2022-10-17T09:24:54.835Z,97.65
2022-10-17T09:27:28.079Z,95.83
2022-10-17T09:30:03.168Z,94.59
2022-10-17T09:32:33.133Z,96.22
2022-10-17T09:35:02.739Z,91.54
2022-10-17T09:37:33.589Z,91.77
2022-10-17T09:40:03.069Z,92.31
2022-10-17T09:42:33.882Z,87.63
2022-10-17T09:45:15.616Z,84.72
2022-10-17T09:50:24.439Z,84.18
2022-10-17T09:52:55.601Z,82.37
2022-10-17T09:55:32.412Z,79.56
2022-10-17T09:58:05.095Z,80.09
2022-10-17T10:00:36.723Z,81.18
2022-10-17T10:03:21.629Z,75.37
2022-10-17T10:06:03.087Z,79.60
2022-10-17T10:08:34.566Z,79.98
2022-10-17T10:11:06.566Z,74.01
2022-10-17T10:13:38.597Z,78.34
2022-10-17T10:16:18.790Z,78.30
2022-10-17T10:18:51.000Z,71.61
2022-10-17T10:21:22.277Z,74.82
2022-10-17T10:24:13.783Z,75.30
2022-10-17T10:26:45.219Z,73.76
2022-10-17T10:29:25.724Z,77.07
2022-10-17T10:31:55.737Z,73.10
2022-10-17T10:34:27.681Z,71.38
2022-10-17T10:37:03.055Z,72.02
2022-10-17T10:39:47.646Z,68.84
2022-10-17T10:42:26.894Z,68.81
2022-10-17T10:45:01.176Z,69.23
2022-10-17T10:47:33.647Z,70.05
2022-10-17T10:50:19.724Z,67.41
2022-10-17T10:52:52.687Z,64.03
2022-10-17T10:55:27.107Z,63.19
2022-10-17T10:58:01.779Z,65.17
2022-10-17T11:00:33.884Z,62.53
2022-10-17T11:03:12.957Z,62.90
2022-10-17T11:05:46.307Z,62.28
2022-10-17T11:08:21.391Z,62.57
2022-10-17T11:11:06.074Z,61.41
2022-10-17T11:13:40.941Z,58.37
2022-10-17T11:16:21.223Z,59.89
2022-10-17T11:18:52.722Z,58.53
2022-10-17T11:21:26.687Z,60.51
2022-10-17T11:24:04.582Z,58.51
2022-10-17T11:26:43.278Z,58.34
2022-10-17T11:29:13.897Z,57.50
2022-10-17T11:31:49.073Z,54.14
2022-10-17T11:34:22.128Z,58.32
2022-10-17T11:36:56.421Z,54.32
2022-10-17T11:39:30.690Z,55.00
2022-10-17T11:42:04.319Z,53.86
2022-10-17T11:44:37.381Z,52.39
2022-10-17T11:47:12.955Z,51.30
2022-10-17T11:49:49.978Z,50.10
2022-10-17T11:52:51.219Z,54.14
2022-10-17T11:55:22.564Z,54.11
2022-10-17T11:58:00.043Z,54.28
2022-10-17T12:00:40.865Z,51.88
2022-10-17T12:03:23.648Z,55.76
2022-10-17T12:05:57.479Z,51.26
2022-10-17T12:08:32.198Z,50.80
2022-10-17T12:11:04.871Z,53.11
2022-10-17T12:13:54.908Z,51.51
2022-10-17T12:16:51.565Z,49.48
2022-10-17T12:19:32.917Z,49.71
2022-10-17T12:22:06.227Z,51.07
2022-10-17T12:24:42.626Z,50.68
2022-10-17T12:27:46.093Z,49.74
2022-10-17T12:30:21.572Z,49.80
2022-10-17T12:33:06.757Z,49.53
2022-10-17T12:35:39.961Z,49.12
2022-10-17T12:38:30.920Z,47.81
2022-10-17T12:41:01.485Z,49.84
2022-10-17T12:46:54.886Z,48.37
2022-10-17T12:49:41.633Z,48.56
2022-10-17T12:52:29.603Z,49.23
2022-10-17T12:55:13.053Z,49.90
2022-10-17T12:57:53.035Z,49.67
2022-10-17T13:00:26.325Z,48.11
2022-10-17T13:02:57.841Z,47.08
2022-10-17T13:05:32.303Z,47.50
2022-10-17T13:08:06.453Z,46.27
2022-10-17T13:10:41.810Z,47.36
2022-10-17T13:13:17.932Z,46.26
2022-10-17T13:15:51.447Z,48.35
2022-10-17T13:18:23.082Z,49.56
2022-10-17T13:21:01.212Z,48.51
2022-10-17T13:23:38.556Z,47.73
2022-10-17T13:26:15.593Z,47.87
2022-10-17T13:28:45.020Z,50.51
2022-10-17T13:38:50.554Z,50.86
2022-10-17T13:41:35.376Z,51.24
2022-10-17T13:44:11.923Z,51.55
2022-10-17T13:46:41.805Z,51.77
2022-10-17T13:49:17.056Z,53.64
2022-10-17T13:51:47.911Z,53.51
2022-10-17T13:54:34.161Z,52.15
2022-10-17T13:57:04.949Z,55.01
2022-10-17T13:59:39.991Z,54.94
2022-10-17T14:02:16.068Z,55.43
2022-10-17T14:05:15.132Z,54.40
2022-10-17T14:08:05.620Z,55.85
2022-10-17T14:10:33.417Z,55.71
2022-10-17T14:13:04.366Z,55.10
2022-10-17T14:15:35.415Z,56.37
2022-10-17T14:18:07.959Z,59.11
2022-10-17T14:21:28.763Z,57.34
2022-10-17T14:23:33.310Z,58.17
2022-10-17T14:26:09.843Z,58.39
2022-10-17T14:28:39.727Z,58.47
2022-10-17T14:31:25.674Z,58.56
2022-10-17T14:33:56.013Z,60.96
2022-10-17T14:36:37.804Z,59.32
2022-10-17T14:39:14.158Z,58.22
2022-10-17T14:41:46.861Z,60.94
2022-10-17T14:44:21.188Z,59.66
2022-10-17T14:46:54.645Z,58.35
2022-10-17T14:49:29.079Z,60.38
2022-10-17T14:52:25.657Z,61.22
2022-10-17T14:54:55.197Z,61.80
2022-10-17T14:57:29.352Z,63.53
2022-10-17T14:59:59.087Z,62.93
2022-10-17T15:02:31.285Z,64.71
2022-10-17T15:05:00.958Z,63.82
2022-10-17T15:07:30.955Z,64.92
2022-10-17T15:10:00.632Z,65.65
2022-10-17T15:12:32.889Z,65.53
2022-10-17T15:15:02.391Z,66.70
2022-10-17T15:17:32.713Z,66.07
2022-10-17T15:20:02.342Z,67.37
2022-10-17T15:25:01.439Z,67.06
2022-10-17T15:27:33.095Z,66.89
2022-10-17T15:30:02.804Z,67.52
2022-10-17T15:32:34.715Z,68.59
2022-10-17T15:35:04.176Z,69.47
2022-10-17T15:37:38.339Z,70.42
2022-10-17T15:40:08.746Z,72.98
2022-10-17T15:42:39.869Z,73.64
2022-10-17T15:45:10.949Z,74.39
2022-10-17T15:47:41.955Z,75.85
2022-10-17T15:50:15.403Z,76.99
2022-10-17T15:52:47.150Z,78.20
2022-10-17T15:55:16.907Z,78.74
2022-10-17T15:57:48.892Z,80.08
2022-10-17T16:00:20.987Z,80.87
2022-10-17T16:02:52.153Z,81.06
2022-10-17T16:05:23.746Z,81.96
2022-10-17T16:07:54.659Z,82.81
2022-10-17T16:10:26.027Z,83.55
2022-10-17T16:12:57.414Z,83.96
2022-10-17T16:15:28.338Z,84.14
2022-10-17T16:18:01.679Z,85.04
2022-10-17T16:20:33.678Z,85.83
2022-10-17T16:23:03.347Z,87.54
2022-10-17T16:25:33.245Z,87.50
2022-10-17T16:28:31.058Z,88.10
2022-10-17T16:31:00.423Z,87.64
2022-10-17T16:33:32.651Z,87.94
2022-10-17T16:36:03.418Z,88.88
2022-10-17T16:38:32.745Z,88.82
2022-10-17T16:41:02.400Z,90.07
2022-10-17T16:43:36.548Z,90.47
2022-10-17T16:46:06.123Z,90.31
2022-10-17T16:48:35.563Z,90.49
2022-10-17T16:51:05.163Z,91.41
2022-10-17T16:53:35.540Z,91.49
2022-10-17T16:56:06.778Z,91.74
2022-10-17T16:58:37.548Z,92.13
2022-10-17T17:01:09.151Z,93.11
2022-10-17T17:03:39.064Z,92.66
2022-10-17T17:06:09.594Z,92.03
2022-10-17T17:08:39.011Z,92.17
2022-10-17T17:11:09.225Z,92.25
2022-10-17T17:13:41.417Z,92.92
2022-10-17T17:16:12.753Z,92.53
2022-10-17T17:18:42.886Z,93.09
2022-10-17T17:21:13.477Z,93.45
2022-10-17T17:23:44.365Z,94.26
2022-10-17T17:26:16.161Z,95.52
2022-10-17T17:28:47.232Z,94.23
2022-10-17T17:31:19.658Z,94.45
2022-10-17T17:33:49.642Z,94.89
2022-10-17T17:36:22.273Z,94.95
2022-10-17T17:38:52.733Z,95.33
2022-10-17T17:41:22.383Z,97.20
2022-10-17T17:43:53.781Z,95.46
2022-10-17T17:46:24.666Z,95.27
2022-10-17T17:48:55.350Z,96.91
2022-10-17T17:51:29.443Z,96.36
2022-10-17T17:53:59.411Z,96.67
2022-10-17T17:56:30.451Z,97.69
2022-10-17T17:59:02.987Z,96.62
2022-10-17T18:01:37.112Z,97.06
2022-10-17T18:04:08.763Z,96.26
2022-10-17T18:06:42.036Z,96.66
2022-10-17T18:09:11.650Z,98.17
2022-10-17T18:11:42.116Z,95.81
2022-10-17T18:15:05.445Z,98.19
2022-10-17T18:17:39.859Z,98.37
2022-10-17T18:20:11.476Z,98.52
2022-10-17T18:22:41.780Z,95.24
2022-10-17T18:25:12.151Z,98.33
2022-10-17T18:27:43.156Z,95.63
2022-10-17T18:30:16.502Z,94.84
2022-10-17T18:32:48.151Z,96.74
2022-10-17T18:35:18.163Z,98.43
2022-10-17T18:37:47.699Z,99.85
2022-10-17T18:40:17.150Z,99.75
2022-10-17T18:42:46.810Z,98.44
2022-10-17T18:45:19.668Z,100.00
2022-10-17T18:47:53.085Z,99.58
2022-10-17T18:50:23.428Z,98.62
2022-10-17T18:52:54.119Z,99.00
2022-10-17T18:55:23.702Z,97.41
2022-10-17T18:57:54.058Z,99.30
2022-10-17T19:00:26.921Z,97.69
2022-10-17T19:02:58.144Z,97.50
2022-10-17T19:05:27.961Z,97.10
2022-10-17T19:07:58.650Z,98.41
2022-10-17T19:10:28.567Z,97.90
2022-10-17T19:12:59.338Z,99.29
2022-10-17T19:15:31.070Z,99.52
2022-10-17T19:18:01.391Z,98.53
2022-10-17T19:20:30.975Z,97.97
2022-10-17T19:23:02.408Z,98.85
2022-10-17T19:25:32.233Z,99.06
2022-10-17T19:28:02.225Z,99.13
2022-10-17T19:30:33.479Z,99.84
2022-10-17T19:33:03.977Z,97.38
2022-10-17T19:35:36.636Z,99.33
2022-10-17T19:38:06.267Z,97.40
2022-10-17T19:40:35.913Z,96.08
2022-10-17T19:43:05.312Z,97.93
2022-10-17T19:45:36.246Z,99.20
2022-10-17T19:48:09.149Z,97.85
2022-10-17T19:50:41.350Z,98.99
2022-10-17T19:53:10.769Z,100.00
2022-10-17T19:55:40.408Z,99.92
2022-10-17T19:58:10.079Z,98.76
2022-10-17T20:00:41.200Z,98.85
2022-10-17T20:03:10.695Z,99.08
2022-10-17T20:05:40.172Z,99.21
2022-10-17T20:08:09.590Z,98.18
2022-10-17T20:10:38.965Z,100.00
2022-10-17T20:13:08.401Z,98.80
2022-10-17T20:15:39.604Z,97.92
2022-10-17T20:18:10.343Z,100.00
2022-10-17T20:20:44.253Z,99.50
2022-10-17T20:23:14.387Z,98.78
2022-10-17T20:25:43.973Z,99.92
2022-10-17T20:28:16.107Z,100.00
2022-10-17T20:30:48.116Z,98.62
2022-10-17T20:33:17.414Z,98.86
2022-10-17T20:35:47.244Z,100.00
2022-10-17T20:38:17.361Z,99.00
2022-10-17T20:40:47.014Z,96.87
2022-10-17T20:43:16.349Z,98.47
2022-10-17T20:45:51.409Z,98.24
2022-10-17T20:48:21.702Z,95.48
2022-10-17T20:50:51.670Z,94.47
2022-10-17T20:53:36.440Z,96.60
2022-10-17T20:56:08.364Z,98.52
2022-10-17T20:58:37.922Z,95.36
2022-10-17T21:01:10.392Z,98.15
2022-10-17T21:03:45.721Z,98.10
2022-10-17T21:06:18.520Z,98.29
2022-10-17T21:08:48.368Z,99.57
2022-10-17T21:11:19.161Z,97.39
2022-10-17T21:13:49.100Z,99.17
2022-10-17T21:16:21.043Z,98.30
2022-10-17T21:18:50.856Z,98.56
2022-10-17T21:21:22.708Z,97.42
2022-10-17T21:23:52.703Z,93.97
2022-10-17T21:26:22.598Z,98.11
2022-10-17T21:28:51.737Z,96.53
2022-10-17T21:31:24.503Z,97.28
2022-10-17T21:33:55.430Z,98.32
2022-10-17T21:36:25.993Z,96.85
2022-10-17T21:38:57.069Z,96.47
2022-10-17T21:41:28.619Z,93.14
2022-10-17T21:44:00.424Z,95.77
2022-10-17T21:46:32.212Z,95.07
2022-10-17T21:49:02.726Z,95.47
2022-10-17T21:51:33.433Z,95.26
2022-10-17T21:54:05.776Z,94.94
2022-10-17T21:56:36.657Z,97.62
2022-10-17T21:59:06.603Z,98.01
2022-10-17T22:01:39.889Z,96.33
2022-10-17T22:04:11.929Z,97.84
2022-10-17T22:06:42.414Z,97.07
2022-10-17T22:09:15.517Z,96.95
2022-10-17T22:11:47.652Z,97.87
2022-10-17T22:14:19.486Z,96.50
2022-10-17T22:16:51.017Z,96.78
2022-10-17T22:19:23.131Z,97.80
2022-10-17T22:21:52.220Z,97.33
2022-10-17T22:24:23.027Z,99.03
2022-10-17T22:26:53.418Z,94.93
2022-10-17T22:29:23.409Z,95.22
2022-10-17T22:31:54.309Z,95.17
2022-10-17T22:34:23.951Z,95.17
2022-10-17T22:36:54.156Z,98.59
2022-10-17T22:39:24.644Z,96.97
2022-10-17T22:41:54.102Z,95.02
2022-10-17T22:44:23.617Z,92.62
2022-10-17T22:46:54.738Z,93.08
2022-10-17T22:49:24.144Z,93.82
2022-10-17T22:51:53.598Z,95.37
2022-10-17T22:54:23.033Z,97.44
2022-10-17T22:56:52.331Z,96.49
2022-10-17T22:59:21.546Z,95.26
2022-10-17T23:01:51.011Z,93.05
2022-10-17T23:04:21.869Z,94.67
2022-10-17T23:06:51.444Z,96.97
2022-10-17T23:09:21.043Z,97.48
2022-10-17T23:11:50.669Z,94.30
2022-10-17T23:14:20.113Z,93.69
2022-10-17T23:16:49.476Z,93.65
2022-10-17T23:19:20.389Z,93.71
2022-10-17T23:21:49.895Z,95.31
2022-10-17T23:24:19.238Z,92.92
2022-10-17T23:26:48.561Z,94.78
2022-10-17T23:29:18.599Z,95.97
2022-10-17T23:31:47.966Z,95.44
2022-10-17T23:34:17.336Z,92.15
2022-10-17T23:36:49.258Z,92.63
2022-10-17T23:39:18.207Z,91.26
2022-10-17T23:41:47.544Z,93.22
2022-10-17T23:44:16.910Z,91.16
2022-10-17T23:46:46.529Z,93.73
2022-10-17T23:49:16.040Z,91.90
2022-10-17T23:51:45.321Z,92.81
2022-10-17T23:54:16.815Z,90.87
2022-10-17T23:56:46.178Z,90.63
2022-10-17T23:59:17.365Z,90.95
